Lagos, Nigeria
Current Conditions -  °F | °C
As of 2:00 PM on Tuesday 21 Oct 2014 (Local Time) from DBBB Reporting Station
Scattered Clouds Scattered Clouds  
Wind Chill: 86°   Ceiling: Unl
Heat Index: 102°   Visibility: 6mi
Dew Point: 81°   Wind: 12mph
Humidity: 84%   Direction: 200°SSW
Pressure: 29.83"   Gusts: NA
Location:  6.45°N, 3.47°E
Report Text: DBBB 211300Z 20010KT 9999 SCT014 SCT120 30/27 Q1010 NOSIG
Loading
Personal Weather Stations






























Interactive Weather Map New forecast layout! Learn more

10-Day Weather Forecast

Advertisements
Track Severe Weather on mobile